Time;durP1;ratioP1;P1;durP2;ratioP2;P2;SDS_P1;SDS_P2;PMS_P1;PMS_P2;Temp;Humidity;BMP_temperature;BMP_pressure;BME280_temperature;BME280_humidity;BME280_pressure;Samples;Min_cycle;Max_cycle;Signal;HPM_P1;HPM_P2
2021/06/03 00:00:16;;;;;;;11.40;6.70;;;;;;;;;;346380;28;1039;-67
2021/06/03 00:00:32;;;;;;;11.18;6.50;;;;;;;;;;344284;28;63209;-68
2021/06/03 00:00:49;;;;;;;11.52;7.10;;;;;;;;;;344147;28;63685;-68
2021/06/03 00:01:02;;;;;;;11.70;7.20;;;;;;;;;;345632;28;63120;-67
2021/06/03 00:01:15;;;;;;;11.26;6.84;;;;;;;;;;347660;28;1200;-67
2021/06/03 00:01:27;;;;;;;10.90;6.32;;;;;;;;;;347497;28;1291;-67
2021/06/03 00:01:40;;;;;;;9.05;5.60;;;;;;;;;;347782;28;1164;-67
2021/06/03 00:01:53;;;;;;;8.60;6.18;;;;;;;;;;347437;28;1161;-66
2021/06/03 00:02:07;;;;;;;9.50;6.20;;;;;;;;;;347758;28;991;-67
2021/06/03 00:02:19;;;;;;;9.82;6.43;;;;;;;;;;347070;28;18098;-68
2021/06/03 00:02:31;;;;;;;8.52;6.43;;;;;;;;;;347056;28;1077;-68
2021/06/03 00:02:44;;;;;;;7.10;5.68;;;;;;;;;;346287;28;1148;-69
2021/06/03 00:02:58;;;;;;;9.40;6.30;;;;;;;;;;346389;28;1124;-68
2021/06/03 00:03:10;;;;;;;11.07;6.78;;;;;;;;;;346572;28;1089;-67
2021/06/03 00:03:24;;;;;;;12.55;7.00;;;;;;;;;;346222;28;1238;-68
2021/06/03 00:03:36;;;;;;;12.75;7.50;;;;;;;;;;347326;28;1730;-67
2021/06/03 00:03:48;;;;;;;11.70;7.60;;;;;;;;;;347499;28;1296;-67
2021/06/03 00:04:00;;;;;;;10.88;7.35;;;;;;;;;;347578;28;1172;-68
2021/06/03 00:04:12;;;;;;;9.57;7.25;;;;;;;;;;347803;28;1033;-68
2021/06/03 00:04:25;;;;;;;10.63;7.22;;;;;;;;;;347518;28;1072;-69
2021/06/03 00:04:37;;;;;;;10.65;6.70;;;;;;;;;;347628;28;1080;-68
2021/06/03 00:04:49;;;;;;;10.32;6.28;;;;;;;;;;347490;28;1215;-68
2021/06/03 00:05:02;;;;;;;9.68;6.38;;;;;;;;;;347694;28;1217;-68
2021/06/03 00:05:15;;;;;;;10.48;6.38;;;;;;;;;;347698;28;1019;-68
2021/06/03 00:05:28;;;;;;;11.60;6.80;;;;;;;;;;347617;28;1042;-68
2021/06/03 00:05:45;;;;;;;13.23;7.60;;;;;;;;;;346290;28;17110;-68
2021/06/03 00:05:59;;;;;;;13.02;7.22;;;;;;;;;;344060;28;62782;-68
2021/06/03 00:06:12;;;;;;;11.85;6.72;;;;;;;;;;345165;28;39736;-68
2021/06/03 00:06:24;;;;;;;11.48;6.72;;;;;;;;;;346194;28;1176;-68
2021/06/03 00:06:36;;;;;;;10.75;6.85;;;;;;;;;;346200;28;1089;-68
2021/06/03 00:06:48;;;;;;;11.63;6.80;;;;;;;;;;346655;28;1103;-68
2021/06/03 00:07:01;;;;;;;12.10;7.15;;;;;;;;;;347873;28;978;-69
2021/06/03 00:07:13;;;;;;;13.13;7.40;;;;;;;;;;347576;28;1174;-66
2021/06/03 00:07:25;;;;;;;12.30;7.53;;;;;;;;;;347536;28;1354;-67
2021/06/03 00:07:37;;;;;;;11.45;7.45;;;;;;;;;;347845;28;1180;-68
2021/06/03 00:07:50;;;;;;;11.18;7.35;;;;;;;;;;347587;28;995;-67
2021/06/03 00:08:03;;;;;;;10.45;7.07;;;;;;;;;;347175;28;17118;-68
2021/06/03 00:08:16;;;;;;;11.45;7.35;;;;;;;;;;347662;28;998;-68
2021/06/03 00:08:29;;;;;;;11.27;7.05;;;;;;;;;;347718;28;1109;-67
2021/06/03 00:08:43;;;;;;;11.02;7.05;;;;;;;;;;347574;28;1046;-68
2021/06/03 00:08:55;;;;;;;11.50;7.28;;;;;;;;;;347109;28;16669;-68
2021/06/03 00:09:07;;;;;;;12.20;7.03;;;;;;;;;;347708;28;2017;-68
2021/06/03 00:09:19;;;;;;;14.38;7.18;;;;;;;;;;347633;28;1173;-68
2021/06/03 00:09:31;;;;;;;12.13;7.20;;;;;;;;;;347880;28;1094;-67
2021/06/03 00:09:43;;;;;;;9.35;6.82;;;;;;;;;;347679;28;1012;-67
2021/06/03 00:09:56;;;;;;;9.32;7.00;;;;;;;;;;347645;28;1439;-68
2021/06/03 00:10:08;;;;;;;9.95;7.03;;;;;;;;;;347725;28;1115;-68
2021/06/03 00:10:28;;;;;;;9.80;7.05;;;;;;;;;;347357;28;1216;-67
2021/06/03 00:10:42;;;;;;;9.25;6.13;;;;;;;;;;345598;28;63613;-67
2021/06/03 00:11:00;;;;;;;9.05;6.28;;;;;;;;;;346252;28;41045;-68
2021/06/03 00:11:12;;;;;;;11.05;7.03;;;;;;;;;;345462;28;63900;-68
2021/06/03 00:11:25;;;;;;;11.90;7.05;;;;;;;;;;347637;28;1079;-67
2021/06/03 00:11:38;;;;;;;10.88;6.97;;;;;;;;;;347801;28;1192;-67
2021/06/03 00:11:50;;;;;;;10.15;7.00;;;;;;;;;;347496;28;1199;-68
2021/06/03 00:12:03;;;;;;;10.80;7.40;;;;;;;;;;347614;28;1038;-68
2021/06/03 00:12:15;;;;;;;10.77;7.45;;;;;;;;;;347705;28;1084;-68
2021/06/03 00:12:27;;;;;;;11.10;7.30;;;;;;;;;;347745;28;1089;-68
2021/06/03 00:12:40;;;;;;;11.48;7.07;;;;;;;;;;347611;28;1145;-68
2021/06/03 00:12:53;;;;;;;11.20;7.12;;;;;;;;;;347341;28;1042;-68
2021/06/03 00:13:05;;;;;;;11.07;7.38;;;;;;;;;;347740;28;1324;-68
2021/06/03 00:13:18;;;;;;;11.65;7.32;;;;;;;;;;347622;28;1258;-68
2021/06/03 00:13:31;;;;;;;12.68;7.15;;;;;;;;;;347546;28;999;-69
2021/06/03 00:13:44;;;;;;;12.18;7.00;;;;;;;;;;347627;28;1330;-68
2021/06/03 00:13:56;;;;;;;12.25;7.07;;;;;;;;;;347388;28;2028;-67
2021/06/03 00:14:09;;;;;;;9.55;7.28;;;;;;;;;;347491;28;1141;-67
2021/06/03 00:14:21;;;;;;;8.52;7.10;;;;;;;;;;347476;28;1054;-67
2021/06/03 00:14:33;;;;;;;9.02;7.22;;;;;;;;;;347742;28;990;-67
2021/06/03 00:14:45;;;;;;;9.50;7.20;;;;;;;;;;347575;28;1176;-67
2021/06/03 00:14:57;;;;;;;8.95;7.22;;;;;;;;;;347380;28;1105;-67
2021/06/03 00:15:11;;;;;;;9.05;7.32;;;;;;;;;;347460;28;1082;-67
2021/06/03 00:15:23;;;;;;;9.93;7.65;;;;;;;;;;347057;28;18039;-67
2021/06/03 00:15:35;;;;;;;10.38;7.50;;;;;;;;;;347524;28;1109;-67
2021/06/03 00:15:48;;;;;;;10.80;7.63;;;;;;;;;;347371;28;1207;-67
2021/06/03 00:16:02;;;;;;;11.65;7.63;;;;;;;;;;347551;28;1127;-67
2021/06/03 00:16:15;;;;;;;11.60;7.18;;;;;;;;;;347163;28;16694;-67
2021/06/03 00:16:33;;;;;;;11.50;7.00;;;;;;;;;;347722;28;1217;-66
2021/06/03 00:16:45;;;;;;;9.98;6.55;;;;;;;;;;344159;28;64008;-67
2021/06/03 00:16:58;;;;;;;9.30;6.55;;;;;;;;;;346137;28;1172;-67
2021/06/03 00:17:10;;;;;;;9.38;6.88;;;;;;;;;;346307;28;1187;-67
2021/06/03 00:17:22;;;;;;;10.20;7.03;;;;;;;;;;346265;28;1176;-67
2021/06/03 00:17:34;;;;;;;10.00;7.13;;;;;;;;;;346358;28;1116;-67
2021/06/03 00:17:46;;;;;;;9.25;7.22;;;;;;;;;;346080;28;1065;-67
2021/06/03 00:17:59;;;;;;;10.65;7.35;;;;;;;;;;346223;28;1188;-68
2021/06/03 00:18:11;;;;;;;12.85;7.63;;;;;;;;;;346474;28;1324;-68
2021/06/03 00:18:23;;;;;;;12.10;7.50;;;;;;;;;;346093;28;1236;-67
2021/06/03 00:18:39;;;;;;;10.80;7.30;;;;;;;;;;346279;28;1001;-67
2021/06/03 00:18:51;;;;;;;9.85;7.07;;;;;;;;;;345279;28;62493;-67
2021/06/03 00:19:07;;;;;;;9.88;7.13;;;;;;;;;;347667;28;2100;-67
2021/06/03 00:19:19;;;;;;;10.65;7.30;;;;;;;;;;345327;28;63154;-67
2021/06/03 00:19:31;;;;;;;10.73;7.50;;;;;;;;;;347602;28;1003;-67
2021/06/03 00:19:43;;;;;;;10.48;7.70;;;;;;;;;;347622;28;1121;-68
2021/06/03 00:19:56;;;;;;;10.75;7.65;;;;;;;;;;347615;28;1067;-68
2021/06/03 00:20:09;;;;;;;10.23;7.05;;;;;;;;;;347865;28;1918;-68
2021/06/03 00:20:22;;;;;;;10.00;6.82;;;;;;;;;;347726;28;1076;-67
2021/06/03 00:20:35;;;;;;;10.63;6.90;;;;;;;;;;347481;28;17152;-69
2021/06/03 00:20:47;;;;;;;10.55;6.72;;;;;;;;;;347784;28;1204;-68
2021/06/03 00:20:59;;;;;;;10.77;6.97;;;;;;;;;;348004;28;1673;-68
2021/06/03 00:21:12;;;;;;;10.18;7.10;;;;;;;;;;347917;28;1041;-68
2021/06/03 00:21:24;;;;;;;9.88;7.20;;;;;;;;;;347951;28;1109;-67
2021/06/03 00:21:38;;;;;;;9.63;7.40;;;;;;;;;;348073;28;962;-67
2021/06/03 00:21:51;;;;;;;9.57;7.20;;;;;;;;;;347320;28;17991;-67
2021/06/03 00:22:03;;;;;;;9.80;6.97;;;;;;;;;;346642;28;1054;-66
2021/06/03 00:22:15;;;;;;;8.77;6.80;;;;;;;;;;346466;28;1144;-68
2021/06/03 00:22:28;;;;;;;9.85;6.97;;;;;;;;;;346660;28;1266;-66
2021/06/03 00:22:40;;;;;;;10.10;6.93;;;;;;;;;;346488;28;975;-67
2021/06/03 00:22:52;;;;;;;12.07;7.50;;;;;;;;;;346399;28;1122;-68
2021/06/03 00:23:05;;;;;;;13.68;7.62;;;;;;;;;;346486;28;1133;-67
2021/06/03 00:23:17;;;;;;;12.68;7.82;;;;;;;;;;346509;28;1184;-69
2021/06/03 00:23:29;;;;;;;11.13;7.80;;;;;;;;;;346675;28;1009;-68
2021/06/03 00:23:41;;;;;;;11.90;7.70;;;;;;;;;;346437;28;1022;-68
2021/06/03 00:23:53;;;;;;;12.18;7.63;;;;;;;;;;346411;28;1045;-69
2021/06/03 00:24:06;;;;;;;10.80;7.50;;;;;;;;;;347288;28;1189;-68
2021/06/03 00:24:18;;;;;;;9.77;7.28;;;;;;;;;;347976;28;1210;-68
2021/06/03 00:24:31;;;;;;;9.55;7.22;;;;;;;;;;347847;28;1070;-68
2021/06/03 00:24:45;;;;;;;10.25;7.70;;;;;;;;;;348048;28;1185;-68
2021/06/03 00:24:57;;;;;;;11.10;7.70;;;;;;;;;;346637;28;41106;-67
2021/06/03 00:25:10;;;;;;;10.25;7.18;;;;;;;;;;347889;28;1073;-68
2021/06/03 00:25:22;;;;;;;8.45;6.80;;;;;;;;;;347904;28;1110;-68
2021/06/03 00:25:35;;;;;;;9.65;7.10;;;;;;;;;;347970;28;1084;-67
2021/06/03 00:25:47;;;;;;;10.18;7.30;;;;;;;;;;347992;28;1272;-66
2021/06/03 00:26:00;;;;;;;10.48;7.10;;;;;;;;;;347746;28;1203;-69
2021/06/03 00:26:12;;;;;;;9.18;7.10;;;;;;;;;;348031;28;1065;-68
2021/06/03 00:26:24;;;;;;;10.30;7.38;;;;;;;;;;347719;28;1153;-67
2021/06/03 00:26:37;;;;;;;11.77;7.53;;;;;;;;;;347785;28;1131;-67
2021/06/03 00:26:49;;;;;;;13.73;7.15;;;;;;;;;;347893;28;1118;-67
2021/06/03 00:27:01;;;;;;;13.02;7.38;;;;;;;;;;347943;28;995;-68
2021/06/03 00:27:13;;;;;;;11.75;7.70;;;;;;;;;;347873;28;1241;-68
2021/06/03 00:27:25;;;;;;;10.77;7.53;;;;;;;;;;347558;28;1145;-68
2021/06/03 00:27:38;;;;;;;10.05;6.97;;;;;;;;;;348011;28;1167;-68
2021/06/03 00:27:50;;;;;;;9.68;7.00;;;;;;;;;;347808;28;1133;-68
2021/06/03 00:28:03;;;;;;;11.35;7.65;;;;;;;;;;347088;28;1089;-67
2021/06/03 00:28:16;;;;;;;11.13;7.60;;;;;;;;;;346306;28;1073;-66
2021/06/03 00:28:28;;;;;;;10.05;7.40;;;;;;;;;;347448;28;1097;-68
2021/06/03 00:28:40;;;;;;;9.48;7.30;;;;;;;;;;347972;28;1060;-68
2021/06/03 00:28:52;;;;;;;11.82;7.53;;;;;;;;;;347781;28;1291;-68
2021/06/03 00:29:04;;;;;;;12.70;7.80;;;;;;;;;;347882;28;1078;-67
2021/06/03 00:29:17;;;;;;;11.15;7.88;;;;;;;;;;347774;28;1107;-68
2021/06/03 00:29:29;;;;;;;10.14;7.58;;;;;;;;;;348026;28;1200;-68
2021/06/03 00:29:41;;;;;;;9.88;7.53;;;;;;;;;;347913;28;1188;-68
2021/06/03 00:29:53;;;;;;;9.93;7.50;;;;;;;;;;347857;28;1164;-69
2021/06/03 00:30:06;;;;;;;11.94;7.80;;;;;;;;;;347944;28;1073;-68
2021/06/03 00:30:19;;;;;;;11.55;7.90;;;;;;;;;;348032;28;1265;-68
2021/06/03 00:30:31;;;;;;;11.25;7.90;;;;;;;;;;348001;28;1213;-68
2021/06/03 00:30:44;;;;;;;10.88;7.80;;;;;;;;;;347920;28;1087;-68
2021/06/03 00:30:56;;;;;;;11.63;7.72;;;;;;;;;;347826;28;1096;-68
2021/06/03 00:31:08;;;;;;;11.35;7.57;;;;;;;;;;348118;28;1033;-69
2021/06/03 00:31:21;;;;;;;10.27;7.05;;;;;;;;;;347997;28;1100;-68
2021/06/03 00:31:33;;;;;;;10.18;7.25;;;;;;;;;;347918;28;1145;-68
2021/06/03 00:31:45;;;;;;;11.18;7.97;;;;;;;;;;348064;28;1006;-68
2021/06/03 00:31:57;;;;;;;11.02;8.05;;;;;;;;;;348186;28;1061;-68
2021/06/03 00:32:10;;;;;;;13.15;7.72;;;;;;;;;;347970;28;1354;-68
2021/06/03 00:32:22;;;;;;;13.95;7.65;;;;;;;;;;347708;28;1064;-68
2021/06/03 00:32:35;;;;;;;11.85;7.38;;;;;;;;;;347765;28;1265;-67
2021/06/03 00:32:47;;;;;;;11.40;7.38;;;;;;;;;;347926;28;1962;-68
2021/06/03 00:33:00;;;;;;;11.57;7.28;;;;;;;;;;348023;28;1885;-69
2021/06/03 00:33:12;;;;;;;11.95;7.38;;;;;;;;;;347779;28;987;-68
2021/06/03 00:33:24;;;;;;;10.98;7.15;;;;;;;;;;347658;28;1970;-68
2021/06/03 00:33:37;;;;;;;10.68;7.20;;;;;;;;;;347822;28;1094;-68
2021/06/03 00:33:49;;;;;;;11.38;7.60;;;;;;;;;;347724;28;1169;-68
2021/06/03 00:34:01;;;;;;;11.05;7.65;;;;;;;;;;347711;28;1156;-68
2021/06/03 00:34:13;;;;;;;10.63;7.50;;;;;;;;;;347941;28;1144;-69
2021/06/03 00:34:25;;;;;;;10.20;7.38;;;;;;;;;;347610;28;1100;-68
2021/06/03 00:34:37;;;;;;;11.18;7.57;;;;;;;;;;347877;28;1184;-68
2021/06/03 00:34:49;;;;;;;10.32;7.55;;;;;;;;;;347849;28;1212;-68
2021/06/03 00:35:02;;;;;;;9.25;7.10;;;;;;;;;;347834;28;1157;-68
2021/06/03 00:35:14;;;;;;;9.98;7.25;;;;;;;;;;347091;28;1111;-68
2021/06/03 00:35:26;;;;;;;11.55;7.53;;;;;;;;;;346534;28;1018;-68
2021/06/03 00:35:38;;;;;;;11.43;7.10;;;;;;;;;;346509;28;1168;-67
2021/06/03 00:35:51;;;;;;;10.50;6.90;;;;;;;;;;346280;28;1157;-68
2021/06/03 00:36:03;;;;;;;9.25;7.18;;;;;;;;;;346523;28;1133;-68
2021/06/03 00:36:15;;;;;;;11.55;7.63;;;;;;;;;;346524;28;1242;-68
2021/06/03 00:36:27;;;;;;;11.88;7.40;;;;;;;;;;346600;28;1130;-68
2021/06/03 00:36:40;;;;;;;11.20;7.25;;;;;;;;;;346469;28;1138;-68
2021/06/03 00:36:52;;;;;;;10.00;7.25;;;;;;;;;;346415;28;1208;-68
2021/06/03 00:37:04;;;;;;;9.38;7.30;;;;;;;;;;347524;28;1307;-68
2021/06/03 00:37:16;;;;;;;9.10;7.32;;;;;;;;;;347970;28;1423;-68
2021/06/03 00:37:28;;;;;;;9.05;7.30;;;;;;;;;;347893;28;1069;-68
2021/06/03 00:37:41;;;;;;;9.23;7.18;;;;;;;;;;347880;28;1047;-68
2021/06/03 00:37:53;;;;;;;8.93;7.25;;;;;;;;;;346479;28;1186;-68
2021/06/03 00:38:06;;;;;;;9.43;7.45;;;;;;;;;;346248;28;1078;-68
2021/06/03 00:38:18;;;;;;;10.63;7.68;;;;;;;;;;346251;28;2028;-68
2021/06/03 00:38:31;;;;;;;10.18;7.60;;;;;;;;;;346388;28;1072;-68
2021/06/03 00:38:43;;;;;;;8.88;7.30;;;;;;;;;;346426;28;1090;-68
2021/06/03 00:38:55;;;;;;;11.38;7.03;;;;;;;;;;346461;28;1237;-68
2021/06/03 00:39:07;;;;;;;11.43;6.88;;;;;;;;;;346235;28;1294;-68
2021/06/03 00:39:19;;;;;;;9.88;7.03;;;;;;;;;;346365;28;1276;-68
2021/06/03 00:39:31;;;;;;;9.00;7.10;;;;;;;;;;346447;28;1059;-68
2021/06/03 00:39:43;;;;;;;9.90;7.43;;;;;;;;;;346510;28;1131;-68
2021/06/03 00:39:55;;;;;;;9.98;7.43;;;;;;;;;;347181;28;1097;-68
2021/06/03 00:40:10;;;;;;;10.38;7.30;;;;;;;;;;347857;28;1073;-68
2021/06/03 00:40:22;;;;;;;10.48;7.22;;;;;;;;;;346456;28;41123;-67
2021/06/03 00:40:34;;;;;;;9.93;7.47;;;;;;;;;;347908;28;1086;-68
2021/06/03 00:40:46;;;;;;;11.63;7.50;;;;;;;;;;347662;28;1280;-67
2021/06/03 00:40:58;;;;;;;11.45;7.47;;;;;;;;;;347964;28;1077;-67
2021/06/03 00:41:11;;;;;;;10.70;7.32;;;;;;;;;;346609;28;1137;-68
2021/06/03 00:41:23;;;;;;;9.93;7.20;;;;;;;;;;346421;28;1106;-68
2021/06/03 00:41:35;;;;;;;8.85;7.28;;;;;;;;;;346448;28;1830;-68
2021/06/03 00:41:47;;;;;;;9.25;7.35;;;;;;;;;;346251;28;1918;-68
2021/06/03 00:41:59;;;;;;;9.52;7.35;;;;;;;;;;346466;28;1163;-68
2021/06/03 00:42:11;;;;;;;10.38;7.22;;;;;;;;;;346544;28;999;-68
2021/06/03 00:42:25;;;;;;;10.48;7.30;;;;;;;;;;345220;28;1094;-68
2021/06/03 00:42:37;;;;;;;11.00;7.43;;;;;;;;;;345344;28;1106;-68
2021/06/03 00:42:49;;;;;;;10.93;7.32;;;;;;;;;;345108;28;1043;-68
2021/06/03 00:43:02;;;;;;;10.90;7.35;;;;;;;;;;345214;28;1132;-68
2021/06/03 00:43:14;;;;;;;9.70;7.20;;;;;;;;;;346012;28;2037;-68
2021/06/03 00:43:26;;;;;;;9.38;7.15;;;;;;;;;;346255;28;1058;-68
2021/06/03 00:43:40;;;;;;;9.40;7.05;;;;;;;;;;346498;28;1196;-68
2021/06/03 00:43:52;;;;;;;9.02;7.10;;;;;;;;;;346366;28;1054;-68
2021/06/03 00:44:05;;;;;;;9.77;7.00;;;;;;;;;;345317;28;1847;-68
2021/06/03 00:44:17;;;;;;;11.13;7.00;;;;;;;;;;345238;28;1098;-69
2021/06/03 00:44:32;;;;;;;11.50;7.28;;;;;;;;;;344615;28;17997;-68
2021/06/03 00:44:44;;;;;;;9.43;7.30;;;;;;;;;;346485;28;1098;-68
2021/06/03 00:44:56;;;;;;;9.00;7.32;;;;;;;;;;346725;28;1070;-68
2021/06/03 00:45:10;;;;;;;9.70;7.18;;;;;;;;;;346531;28;1228;-68
2021/06/03 00:45:25;;;;;;;11.98;7.63;;;;;;;;;;345746;28;17082;-67
2021/06/03 00:45:38;;;;;;;11.80;7.70;;;;;;;;;;345141;28;40693;-68
2021/06/03 00:45:50;;;;;;;10.20;7.35;;;;;;;;;;346224;28;1047;-68
2021/06/03 00:46:04;;;;;;;9.45;7.00;;;;;;;;;;346628;28;1116;-68
2021/06/03 00:46:16;;;;;;;10.50;7.10;;;;;;;;;;346501;28;1220;-67
2021/06/03 00:46:28;;;;;;;10.07;7.10;;;;;;;;;;346701;28;1169;-66
2021/06/03 00:46:41;;;;;;;8.80;7.20;;;;;;;;;;346599;28;1039;-68
2021/06/03 00:46:53;;;;;;;8.63;7.22;;;;;;;;;;346624;28;1110;-68
2021/06/03 00:47:06;;;;;;;9.40;7.30;;;;;;;;;;346678;28;1925;-68
2021/06/03 00:47:18;;;;;;;10.65;7.25;;;;;;;;;;346515;28;1074;-68
2021/06/03 00:47:30;;;;;;;10.43;7.10;;;;;;;;;;346458;28;1146;-68
2021/06/03 00:47:43;;;;;;;9.77;7.22;;;;;;;;;;346640;28;1659;-69
2021/06/03 00:47:56;;;;;;;8.85;7.18;;;;;;;;;;346352;28;1453;-67
2021/06/03 00:48:08;;;;;;;8.70;6.82;;;;;;;;;;346521;28;1082;-67
2021/06/03 00:48:21;;;;;;;8.88;6.80;;;;;;;;;;346101;28;1407;-68
2021/06/03 00:48:33;;;;;;;9.32;7.07;;;;;;;;;;346391;28;1382;-68
2021/06/03 00:48:45;;;;;;;10.13;7.00;;;;;;;;;;346623;28;1227;-66
2021/06/03 00:48:58;;;;;;;11.94;7.16;;;;;;;;;;346398;28;1217;-67
2021/06/03 00:49:10;;;;;;;12.48;7.35;;;;;;;;;;346272;28;1132;-66
2021/06/03 00:49:22;;;;;;;12.07;7.40;;;;;;;;;;346242;28;1087;-67
2021/06/03 00:49:34;;;;;;;11.82;7.32;;;;;;;;;;346443;28;1239;-66
2021/06/03 00:49:46;;;;;;;10.90;7.32;;;;;;;;;;346867;28;1017;-67
2021/06/03 00:49:58;;;;;;;9.82;7.20;;;;;;;;;;347930;28;1105;-67
2021/06/03 00:50:12;;;;;;;10.40;7.03;;;;;;;;;;347841;28;1177;-67
2021/06/03 00:50:50;;;;;;;11.13;7.28;;;;;;;;;;347354;28;16643;-67
2021/06/03 00:51:05;;;;;;;11.23;7.15;;;;;;;;;;342296;28;61451;-67
2021/06/03 00:51:17;;;;;;;11.85;7.03;;;;;;;;;;345958;28;17267;-67
2021/06/03 00:51:29;;;;;;;10.95;7.00;;;;;;;;;;346615;28;1073;-67
2021/06/03 00:51:41;;;;;;;12.20;7.45;;;;;;;;;;348039;28;1228;-67
2021/06/03 00:51:54;;;;;;;14.18;7.90;;;;;;;;;;347724;28;1248;-68
2021/06/03 00:52:06;;;;;;;10.70;7.40;;;;;;;;;;347742;28;1006;-67
2021/06/03 00:52:18;;;;;;;10.48;7.05;;;;;;;;;;347794;28;982;-67
2021/06/03 00:52:30;;;;;;;9.77;7.25;;;;;;;;;;347978;28;1287;-67
2021/06/03 00:52:42;;;;;;;9.27;7.50;;;;;;;;;;347713;28;1062;-67
2021/06/03 00:52:55;;;;;;;10.35;7.80;;;;;;;;;;347700;28;1065;-66
2021/06/03 00:53:08;;;;;;;10.73;7.65;;;;;;;;;;347696;28;1063;-66
2021/06/03 00:53:21;;;;;;;11.25;7.60;;;;;;;;;;347162;28;16374;-67
2021/06/03 00:53:34;;;;;;;11.18;7.60;;;;;;;;;;347828;28;1094;-67
2021/06/03 00:53:46;;;;;;;10.38;7.47;;;;;;;;;;347468;28;15564;-68
2021/06/03 00:53:59;;;;;;;10.60;7.38;;;;;;;;;;347822;28;1285;-67
2021/06/03 00:54:11;;;;;;;11.32;7.55;;;;;;;;;;348044;28;1178;-66
2021/06/03 00:54:23;;;;;;;12.63;7.85;;;;;;;;;;347852;28;1177;-68
2021/06/03 00:54:35;;;;;;;12.00;7.50;;;;;;;;;;348014;28;1027;-67
2021/06/03 00:54:47;;;;;;;12.75;7.60;;;;;;;;;;347609;28;1066;-68
2021/06/03 00:55:00;;;;;;;12.57;7.88;;;;;;;;;;347971;28;1074;-68
2021/06/03 00:55:12;;;;;;;11.45;7.65;;;;;;;;;;348016;28;1192;-68
2021/06/03 00:55:24;;;;;;;10.65;7.50;;;;;;;;;;347988;28;1374;-67
2021/06/03 00:55:38;;;;;;;9.45;7.35;;;;;;;;;;347768;28;1261;-67
2021/06/03 00:55:54;;;;;;;10.82;7.63;;;;;;;;;;347191;28;16669;-68
2021/06/03 00:56:06;;;;;;;11.07;7.50;;;;;;;;;;345871;28;62650;-68
2021/06/03 00:56:18;;;;;;;8.63;7.07;;;;;;;;;;347864;28;1077;-68
2021/06/03 00:56:31;;;;;;;9.48;7.60;;;;;;;;;;347973;28;1050;-68
2021/06/03 00:56:43;;;;;;;12.05;8.15;;;;;;;;;;347797;28;1253;-69
2021/06/03 00:56:55;;;;;;;12.68;8.10;;;;;;;;;;347788;28;1093;-68
2021/06/03 00:57:08;;;;;;;11.73;7.85;;;;;;;;;;347984;28;1081;-68
2021/06/03 00:57:20;;;;;;;11.55;7.78;;;;;;;;;;347862;28;1156;-68
2021/06/03 00:57:32;;;;;;;11.43;8.00;;;;;;;;;;347661;28;1062;-68
2021/06/03 00:57:44;;;;;;;11.02;7.85;;;;;;;;;;347565;28;1173;-68
2021/06/03 00:57:56;;;;;;;9.82;7.85;;;;;;;;;;347746;28;1094;-68
2021/06/03 00:58:08;;;;;;;10.15;7.88;;;;;;;;;;347893;28;1150;-68
2021/06/03 00:58:21;;;;;;;10.50;7.60;;;;;;;;;;347754;28;1095;-68
2021/06/03 00:58:34;;;;;;;11.10;7.70;;;;;;;;;;347857;28;1133;-69
2021/06/03 00:58:48;;;;;;;11.52;7.82;;;;;;;;;;346843;28;1133;-68
2021/06/03 00:59:00;;;;;;;10.90;7.65;;;;;;;;;;346109;28;17080;-68
2021/06/03 00:59:12;;;;;;;12.75;7.50;;;;;;;;;;346658;28;1156;-67
2021/06/03 00:59:24;;;;;;;12.05;7.50;;;;;;;;;;346417;28;1092;-68
2021/06/03 00:59:36;;;;;;;11.10;7.78;;;;;;;;;;346270;28;1133;-68
2021/06/03 00:59:48;;;;;;;11.25;7.70;;;;;;;;;;346305;28;1109;-66
2021/06/03 01:00:01;;;;;;;10.50;7.25;;;;;;;;;;346559;28;1282;-68
2021/06/03 01:00:14;;;;;;;11.00;6.70;;;;;;;;;;347730;28;1248;-68
2021/06/03 01:00:27;;;;;;;11.02;6.60;;;;;;;;;;347470;28;1249;-68
2021/06/03 01:00:39;;;;;;;12.32;6.68;;;;;;;;;;347740;28;1129;-69
2021/06/03 01:00:52;;;;;;;11.30;6.30;;;;;;;;;;347707;28;1065;-67
2021/06/03 01:01:04;;;;;;;11.65;6.63;;;;;;;;;;346592;28;1246;-66
2021/06/03 01:01:16;;;;;;;10.77;7.07;;;;;;;;;;346656;28;1065;-68
2021/06/03 01:01:28;;;;;;;11.98;7.35;;;;;;;;;;346355;28;1139;-69
2021/06/03 01:01:40;;;;;;;10.88;7.50;;;;;;;;;;346526;28;1157;-68
2021/06/03 01:01:53;;;;;;;11.35;7.57;;;;;;;;;;346325;28;1113;-68
2021/06/03 01:02:05;;;;;;;10.57;7.57;;;;;;;;;;346533;28;1114;-68
2021/06/03 01:02:17;;;;;;;10.18;7.60;;;;;;;;;;346272;28;1309;-66
2021/06/03 01:02:30;;;;;;;9.88;7.40;;;;;;;;;;346593;28;1952;-68
2021/06/03 01:02:43;;;;;;;10.18;7.45;;;;;;;;;;346623;28;1178;-68
2021/06/03 01:02:55;;;;;;;11.07;7.80;;;;;;;;;;346337;28;1094;-68
2021/06/03 01:03:08;;;;;;;11.52;7.95;;;;;;;;;;347496;28;1082;-68
2021/06/03 01:03:21;;;;;;;11.00;7.70;;;;;;;;;;347312;28;1913;-68
2021/06/03 01:03:33;;;;;;;10.15;7.32;;;;;;;;;;347959;28;1107;-68
2021/06/03 01:03:45;;;;;;;9.48;7.20;;;;;;;;;;347748;28;1168;-68
2021/06/03 01:03:59;;;;;;;10.68;7.07;;;;;;;;;;347970;28;1261;-68
2021/06/03 01:04:16;;;;;;;10.60;7.05;;;;;;;;;;346995;28;16880;-68
2021/06/03 01:04:29;;;;;;;8.88;7.35;;;;;;;;;;345809;28;62572;-68
2021/06/03 01:04:41;;;;;;;9.23;7.55;;;;;;;;;;347977;28;978;-68
2021/06/03 01:04:53;;;;;;;9.85;7.60;;;;;;;;;;347965;28;986;-68
2021/06/03 01:05:07;;;;;;;10.55;7.50;;;;;;;;;;347903;28;1180;-68
2021/06/03 01:05:25;;;;;;;11.30;7.65;;;;;;;;;;347998;28;1138;-68
2021/06/03 01:05:37;;;;;;;12.20;7.78;;;;;;;;;;345987;28;63576;-68
2021/06/03 01:05:53;;;;;;;12.20;7.50;;;;;;;;;;348013;28;982;-69
2021/06/03 01:06:07;;;;;;;10.75;8.00;;;;;;;;;;345622;28;62919;-68
2021/06/03 01:06:19;;;;;;;9.73;8.07;;;;;;;;;;347364;28;16652;-68
2021/06/03 01:06:31;;;;;;;10.18;7.43;;;;;;;;;;347851;28;1010;-68
2021/06/03 01:06:43;;;;;;;11.00;7.30;;;;;;;;;;347855;28;1211;-69
2021/06/03 01:06:55;;;;;;;10.88;7.63;;;;;;;;;;348005;28;1004;-70
2021/06/03 01:07:07;;;;;;;10.73;7.90;;;;;;;;;;347753;28;1297;-68
2021/06/03 01:07:20;;;;;;;11.15;7.72;;;;;;;;;;347842;28;1069;-68
2021/06/03 01:07:32;;;;;;;11.05;7.50;;;;;;;;;;347857;28;1060;-69
2021/06/03 01:07:44;;;;;;;10.55;7.57;;;;;;;;;;347981;28;1053;-68
2021/06/03 01:07:57;;;;;;;10.35;7.60;;;;;;;;;;347636;28;1063;-68
2021/06/03 01:08:11;;;;;;;11.23;7.47;;;;;;;;;;347787;28;1082;-68
2021/06/03 01:08:24;;;;;;;11.63;7.50;;;;;;;;;;347365;28;16674;-68
2021/06/03 01:08:39;;;;;;;10.52;7.53;;;;;;;;;;347733;28;1226;-68
2021/06/03 01:09:00;;;;;;;10.02;7.35;;;;;;;;;;346433;28;39642;-68
2021/06/03 01:09:15;;;;;;;10.90;7.60;;;;;;;;;;345871;28;63544;-68
2021/06/03 01:09:30;;;;;;;10.75;7.65;;;;;;;;;;346806;28;41079;-68
2021/06/03 01:10:01;;;;;;;11.63;7.97;;;;;;;;;;346653;28;39816;-68
2021/06/03 01:10:31;;;;;;;11.02;7.90;;;;;;;;;;345963;28;62114;-68
2021/06/03 01:11:01;;;;;;;11.63;7.72;;;;;;;;;;345616;28;64348;-68
2021/06/03 01:11:16;;;;;;;10.90;7.55;;;;;;;;;;345837;28;64342;-69
2021/06/03 01:11:30;;;;;;;10.95;7.72;;;;;;;;;;346498;28;41987;-68
2021/06/03 01:11:42;;;;;;;11.05;7.80;;;;;;;;;;346200;28;40219;-68
2021/06/03 01:11:55;;;;;;;10.57;7.50;;;;;;;;;;347524;28;1004;-66
2021/06/03 01:12:10;;;;;;;10.00;7.47;;;;;;;;;;347889;28;1311;-68
2021/06/03 01:12:35;;;;;;;10.65;7.53;;;;;;;;;;344934;28;39413;-68
2021/06/03 01:13:07;;;;;;;11.05;7.10;;;;;;;;;;344107;28;62146;-68
2021/06/03 01:13:19;;;;;;;10.20;6.97;;;;;;;;;;344125;28;63671;-68
2021/06/03 01:13:31;;;;;;;11.85;7.53;;;;;;;;;;346528;28;1156;-68
2021/06/03 01:13:53;;;;;;;13.48;7.80;;;;;;;;;;346411;28;1093;-68
2021/06/03 01:14:10;;;;;;;12.07;7.65;;;;;;;;;;344381;28;62782;-69
2021/06/03 01:14:26;;;;;;;11.13;7.97;;;;;;;;;;344147;28;64049;-68
2021/06/03 01:14:42;;;;;;;10.90;7.78;;;;;;;;;;345116;28;39400;-68
2021/06/03 01:14:58;;;;;;;10.38;7.40;;;;;;;;;;342863;28;63761;-67
2021/06/03 01:15:11;;;;;;;10.95;7.32;;;;;;;;;;343143;28;63707;-66
2021/06/03 01:15:24;;;;;;;10.85;6.70;;;;;;;;;;345089;28;1129;-69
2021/06/03 01:15:38;;;;;;;10.45;6.65;;;;;;;;;;345204;28;1317;-68
2021/06/03 01:15:50;;;;;;;9.43;7.32;;;;;;;;;;345150;28;17020;-67
2021/06/03 01:16:03;;;;;;;9.70;7.63;;;;;;;;;;346534;28;1225;-68
2021/06/03 01:16:16;;;;;;;10.07;7.43;;;;;;;;;;346637;28;1106;-68
2021/06/03 01:16:29;;;;;;;10.50;7.20;;;;;;;;;;346736;28;1205;-68
2021/06/03 01:16:42;;;;;;;10.90;7.00;;;;;;;;;;346763;28;1172;-69
2021/06/03 01:16:55;;;;;;;11.77;7.10;;;;;;;;;;346730;28;1335;-68
2021/06/03 01:17:08;;;;;;;11.10;6.68;;;;;;;;;;346784;28;987;-68
2021/06/03 01:17:21;;;;;;;9.65;6.05;;;;;;;;;;346364;28;1069;-67
2021/06/03 01:17:33;;;;;;;8.85;5.82;;;;;;;;;;346670;28;1344;-67
2021/06/03 01:17:46;;;;;;;11.52;7.13;;;;;;;;;;346848;28;1066;-67
2021/06/03 01:18:01;;;;;;;11.55;7.50;;;;;;;;;;347892;28;1120;-66
2021/06/03 01:18:14;;;;;;;9.65;7.47;;;;;;;;;;346473;28;41411;-69
2021/06/03 01:18:26;;;;;;;11.65;7.80;;;;;;;;;;347802;28;1090;-68
2021/06/03 01:18:40;;;;;;;11.75;7.75;;;;;;;;;;347990;28;1297;-68
2021/06/03 01:18:52;;;;;;;10.50;7.35;;;;;;;;;;347875;28;1105;-68
2021/06/03 01:19:10;;;;;;;11.13;7.30;;;;;;;;;;347925;28;1102;-66
2021/06/03 01:19:24;;;;;;;11.32;7.63;;;;;;;;;;345701;28;63887;-68
2021/06/03 01:19:38;;;;;;;11.38;7.70;;;;;;;;;;347289;28;17011;-67
2021/06/03 01:19:51;;;;;;;11.75;7.65;;;;;;;;;;347201;28;18101;-67
2021/06/03 01:20:04;;;;;;;10.90;7.50;;;;;;;;;;347761;28;1172;-68